createdAt,value
2019-05-16T00:00:02.665Z,70.58
2019-05-16T00:02:31.124Z,70.63
2019-05-16T00:04:59.527Z,70.31
2019-05-16T00:07:28.387Z,71.12
2019-05-16T00:09:58.941Z,71.68
2019-05-16T00:12:29.179Z,71.28
2019-05-16T00:14:58.167Z,72.55
2019-05-16T00:17:28.436Z,71.64
2019-05-16T00:19:58.846Z,71.62
2019-05-16T00:22:28.769Z,71.21
2019-05-16T00:24:58.022Z,71.37
2019-05-16T00:27:28.080Z,71.19
2019-05-16T00:29:58.201Z,72.34
2019-05-16T00:32:28.184Z,72.73
2019-05-16T00:34:58.369Z,72.57
2019-05-16T00:37:28.713Z,73.48
2019-05-16T00:39:58.804Z,72.54
2019-05-16T00:42:28.678Z,72.84
2019-05-16T00:44:58.324Z,73.10
2019-05-16T00:47:28.390Z,73.16
2019-05-16T00:49:58.217Z,74.07
2019-05-16T00:52:28.874Z,73.97
2019-05-16T00:54:57.976Z,75.08
2019-05-16T00:57:28.245Z,74.08
2019-05-16T00:59:59.028Z,75.27
2019-05-16T01:02:28.813Z,74.85
2019-05-16T01:04:58.978Z,75.51
2019-05-16T01:07:27.771Z,75.53
2019-05-16T01:09:58.317Z,75.72
2019-05-16T01:12:28.386Z,75.83
2019-05-16T01:14:58.455Z,75.61
2019-05-16T01:17:28.325Z,75.91
2019-05-16T01:19:57.845Z,75.26
2019-05-16T01:22:28.927Z,76.02
2019-05-16T01:24:58.500Z,75.16
2019-05-16T01:27:27.786Z,75.52
2019-05-16T01:29:58.398Z,76.11
2019-05-16T01:32:31.856Z,76.04
2019-05-16T01:34:58.864Z,75.90
2019-05-16T01:37:27.917Z,75.42
2019-05-16T01:39:58.608Z,74.55
2019-05-16T01:42:27.888Z,75.96
2019-05-16T01:44:57.854Z,75.76
2019-05-16T01:47:28.642Z,75.53
2019-05-16T01:49:58.038Z,76.13
2019-05-16T01:52:28.905Z,76.70
2019-05-16T01:54:58.736Z,76.37
2019-05-16T01:57:28.192Z,76.36
2019-05-16T01:59:58.924Z,76.50
2019-05-16T02:02:28.908Z,75.96
2019-05-16T02:04:59.086Z,76.20
2019-05-16T02:07:28.311Z,76.73
2019-05-16T02:09:58.203Z,77.18
2019-05-16T02:12:27.752Z,77.08
2019-05-16T02:14:58.598Z,76.80
2019-05-16T02:17:28.764Z,76.51
2019-05-16T02:19:57.795Z,76.62
2019-05-16T02:22:28.395Z,76.74
2019-05-16T02:24:58.340Z,76.02
2019-05-16T02:27:28.561Z,76.52
2019-05-16T02:29:56.692Z,76.35
2019-05-16T02:32:25.189Z,75.12
2019-05-16T02:34:53.660Z,74.65
2019-05-16T02:37:29.254Z,74.37
2019-05-16T02:39:54.573Z,74.25
2019-05-16T02:42:23.032Z,73.69
2019-05-16T02:44:51.529Z,73.78
2019-05-16T02:47:21.062Z,73.78
2019-05-16T02:49:50.552Z,74.07
2019-05-16T02:52:21.764Z,73.53
2019-05-16T02:54:51.836Z,73.64
2019-05-16T02:57:21.265Z,74.94
2019-05-16T02:59:50.907Z,75.29
2019-05-16T03:02:20.532Z,76.01
2019-05-16T03:04:51.819Z,77.06
2019-05-16T03:07:36.616Z,76.87
2019-05-16T03:09:51.572Z,76.80
2019-05-16T03:12:22.375Z,77.30
2019-05-16T03:14:54.450Z,76.27
2019-05-16T03:17:25.102Z,76.57
2019-05-16T03:19:56.688Z,74.99
2019-05-16T03:22:31.449Z,74.17
2019-05-16T03:25:01.086Z,74.61
2019-05-16T03:27:30.571Z,76.28
2019-05-16T03:30:01.632Z,76.74
2019-05-16T03:32:34.170Z,76.15
2019-05-16T03:35:04.841Z,75.95
2019-05-16T03:37:30.770Z,75.49
2019-05-16T03:40:00.511Z,75.28
2019-05-16T03:42:31.040Z,75.04
2019-05-16T03:45:02.037Z,75.39
2019-05-16T03:47:31.352Z,76.04
2019-05-16T03:50:00.593Z,76.00
2019-05-16T03:52:31.014Z,76.24
2019-05-16T03:55:01.583Z,76.62
2019-05-16T03:57:30.745Z,75.71
2019-05-16T04:00:00.617Z,75.45
2019-05-16T04:02:30.904Z,75.59
2019-05-16T04:05:02.020Z,74.89
2019-05-16T04:07:31.721Z,75.02
2019-05-16T04:10:02.173Z,74.65
2019-05-16T04:12:30.860Z,74.12
2019-05-16T04:15:01.851Z,73.84
2019-05-16T04:17:31.790Z,75.07
2019-05-16T04:20:02.148Z,75.30
2019-05-16T04:22:31.853Z,74.06
2019-05-16T04:25:01.966Z,73.98
2019-05-16T04:27:30.872Z,73.43
2019-05-16T04:30:01.537Z,73.19
2019-05-16T04:32:31.448Z,72.94
2019-05-16T04:35:02.554Z,73.12
2019-05-16T04:37:31.407Z,72.49
2019-05-16T04:40:01.220Z,73.09
2019-05-16T04:42:31.073Z,72.58
2019-05-16T04:45:01.239Z,72.41
2019-05-16T04:47:31.732Z,71.68
2019-05-16T04:50:01.860Z,72.48
2019-05-16T04:52:30.817Z,71.29
2019-05-16T04:55:00.763Z,71.12
2019-05-16T04:57:31.382Z,71.17
2019-05-16T05:00:02.221Z,72.21
2019-05-16T05:02:31.020Z,72.53
2019-05-16T05:05:01.297Z,72.66
2019-05-16T05:07:31.295Z,72.87
2019-05-16T05:10:00.804Z,73.08
2019-05-16T05:12:31.485Z,73.22
2019-05-16T05:15:01.436Z,72.40
2019-05-16T05:17:30.672Z,71.41
2019-05-16T05:20:01.016Z,69.74
2019-05-16T05:22:30.410Z,70.37
2019-05-16T05:25:00.209Z,68.62
2019-05-16T05:27:30.275Z,68.95
2019-05-16T05:30:01.089Z,68.87
2019-05-16T05:32:30.537Z,68.87
2019-05-16T05:34:59.866Z,68.95
2019-05-16T05:37:29.764Z,67.89
2019-05-16T05:39:59.930Z,67.68
2019-05-16T05:42:30.627Z,66.29
2019-05-16T05:45:00.295Z,67.47
2019-05-16T05:47:30.705Z,65.87
2019-05-16T05:50:00.714Z,65.98
2019-05-16T05:52:30.299Z,65.87
2019-05-16T05:55:00.655Z,65.84
2019-05-16T05:57:30.064Z,64.58
2019-05-16T06:00:00.558Z,64.35
2019-05-16T06:02:31.023Z,65.27
2019-05-16T06:04:59.729Z,64.47
2019-05-16T06:07:30.055Z,64.12
2019-05-16T06:10:00.396Z,64.98
2019-05-16T06:12:30.286Z,64.81
2019-05-16T06:15:08.338Z,63.93
2019-05-16T06:17:30.699Z,63.63
2019-05-16T06:20:00.307Z,63.05
2019-05-16T06:22:29.836Z,64.56
2019-05-16T06:25:00.906Z,63.33
2019-05-16T06:27:30.324Z,63.60
2019-05-16T06:30:00.535Z,63.26
2019-05-16T06:32:30.379Z,63.00
2019-05-16T06:35:00.109Z,62.70
2019-05-16T06:37:30.955Z,62.71
2019-05-16T06:40:00.652Z,62.40
2019-05-16T06:42:29.959Z,62.60
2019-05-16T06:45:00.867Z,62.49
2019-05-16T06:47:30.500Z,62.11
2019-05-16T06:50:00.277Z,63.23
2019-05-16T06:52:30.174Z,62.12
2019-05-16T06:55:00.741Z,61.83
2019-05-16T06:57:30.280Z,62.47
2019-05-16T07:00:00.656Z,62.56
2019-05-16T07:02:33.685Z,61.57
2019-05-16T07:05:01.176Z,61.16
2019-05-16T07:07:30.808Z,61.48
2019-05-16T07:10:04.241Z,61.90
2019-05-16T07:12:33.759Z,62.38
2019-05-16T07:15:01.652Z,62.04
2019-05-16T07:17:30.624Z,61.69
2019-05-16T07:20:00.703Z,62.09
2019-05-16T07:22:31.210Z,61.50
2019-05-16T07:24:59.957Z,62.43
2019-05-16T07:27:30.859Z,61.96
2019-05-16T07:30:01.156Z,60.80
2019-05-16T07:32:30.216Z,61.04
2019-05-16T07:35:00.305Z,60.92
2019-05-16T07:37:31.431Z,61.82
2019-05-16T07:40:08.515Z,61.42
2019-05-16T07:42:30.716Z,60.50
2019-05-16T07:45:00.817Z,61.06
2019-05-16T07:47:30.939Z,60.71
2019-05-16T07:49:59.686Z,60.66
2019-05-16T07:52:35.227Z,61.25
2019-05-16T07:55:00.295Z,60.91
2019-05-16T07:57:30.464Z,60.62
2019-05-16T08:00:00.188Z,60.79
2019-05-16T08:02:31.108Z,61.28
2019-05-16T08:05:00.765Z,60.58
2019-05-16T08:07:33.106Z,59.92
2019-05-16T08:09:59.836Z,60.52
2019-05-16T08:12:32.736Z,60.24
2019-05-16T08:15:00.737Z,60.85
2019-05-16T08:17:31.269Z,61.52
2019-05-16T08:20:00.065Z,62.89
2019-05-16T08:22:30.631Z,61.74
2019-05-16T08:25:00.243Z,61.38
2019-05-16T08:27:31.396Z,62.88
2019-05-16T08:30:02.187Z,63.36
2019-05-16T08:32:31.245Z,62.85
2019-05-16T08:35:01.059Z,62.86
2019-05-16T08:37:41.362Z,62.09
2019-05-16T08:40:00.490Z,62.91
2019-05-16T08:42:32.328Z,60.68
2019-05-16T08:45:01.829Z,63.04
2019-05-16T08:47:32.152Z,62.64
2019-05-16T08:50:00.658Z,62.81
2019-05-16T08:52:31.569Z,62.60
2019-05-16T08:55:03.115Z,64.47
2019-05-16T08:57:32.695Z,63.38
2019-05-16T09:00:01.383Z,63.12
2019-05-16T09:02:36.285Z,63.34
2019-05-16T09:05:05.005Z,63.83
2019-05-16T09:07:31.833Z,64.22
2019-05-16T09:10:00.892Z,61.98
2019-05-16T09:12:29.250Z,62.41
2019-05-16T09:14:59.388Z,64.33
2019-05-16T09:17:27.902Z,64.55
2019-05-16T09:19:57.702Z,63.51
2019-05-16T09:22:28.208Z,63.52
2019-05-16T09:24:57.760Z,62.49
2019-05-16T09:27:27.354Z,60.45
2019-05-16T09:30:02.771Z,61.54
2019-05-16T09:32:27.909Z,61.04
2019-05-16T09:34:57.358Z,61.93
2019-05-16T09:37:26.830Z,61.59
2019-05-16T09:39:57.293Z,62.30
2019-05-16T09:42:27.734Z,62.58
2019-05-16T09:44:57.799Z,63.03
2019-05-16T09:47:28.276Z,62.13
2019-05-16T09:49:57.972Z,61.84
2019-05-16T09:52:27.311Z,61.43
2019-05-16T09:54:57.774Z,61.62
2019-05-16T09:57:27.833Z,60.88
2019-05-16T09:59:57.177Z,60.27
2019-05-16T10:02:27.364Z,61.11
2019-05-16T10:04:57.986Z,60.32
2019-05-16T10:07:28.305Z,60.51
2019-05-16T10:09:57.142Z,61.38
2019-05-16T10:12:26.285Z,58.11
2019-05-16T10:14:54.784Z,57.81
2019-05-16T10:17:23.277Z,58.02
2019-05-16T10:19:51.691Z,57.45
2019-05-16T10:22:20.108Z,56.82
2019-05-16T10:24:48.504Z,56.87
2019-05-16T10:27:17.362Z,56.12
2019-05-16T10:29:48.349Z,56.11
2019-05-16T10:32:16.732Z,56.68
2019-05-16T10:34:46.708Z,55.81
2019-05-16T10:37:17.674Z,55.71
2019-05-16T10:39:46.933Z,55.97
2019-05-16T10:42:25.056Z,56.82
2019-05-16T10:44:48.472Z,57.16
2019-05-16T10:47:17.283Z,57.53
2019-05-16T10:49:47.575Z,57.84
2019-05-16T10:52:16.700Z,58.00
2019-05-16T10:54:55.241Z,55.53
2019-05-16T10:57:15.587Z,57.09
2019-05-16T11:00:01.948Z,57.77
2019-05-16T11:02:16.549Z,57.94
2019-05-16T11:04:57.506Z,58.11
2019-05-16T11:07:14.909Z,56.92
2019-05-16T11:09:54.729Z,56.28
2019-05-16T11:12:13.586Z,57.49
2019-05-16T11:14:42.048Z,57.21
2019-05-16T11:17:13.294Z,56.65
2019-05-16T11:19:40.610Z,57.00
2019-05-16T11:22:09.104Z,57.38
2019-05-16T11:24:37.873Z,57.41
2019-05-16T11:27:07.514Z,58.60
2019-05-16T11:29:36.603Z,57.88
2019-05-16T11:32:06.940Z,58.46
2019-05-16T11:34:37.417Z,57.32
2019-05-16T11:37:06.881Z,57.11
2019-05-16T11:39:37.068Z,59.10
2019-05-16T11:42:08.080Z,58.17
2019-05-16T11:44:38.044Z,58.15
2019-05-16T11:47:08.322Z,57.94
2019-05-16T11:49:36.900Z,58.97
2019-05-16T11:52:07.375Z,58.57
2019-05-16T11:54:37.406Z,57.57
2019-05-16T11:57:06.981Z,57.55
2019-05-16T11:59:37.314Z,58.29
2019-05-16T12:02:05.983Z,58.28
2019-05-16T12:04:34.388Z,57.30
2019-05-16T12:07:02.810Z,57.36
2019-05-16T12:09:34.178Z,56.19
2019-05-16T12:12:04.030Z,56.65
2019-05-16T12:14:31.571Z,56.57
2019-05-16T12:17:00.005Z,56.44
2019-05-16T12:19:33.738Z,57.55
2019-05-16T12:21:58.726Z,56.97
2019-05-16T12:24:36.462Z,58.16
2019-05-16T12:27:00.548Z,57.28
2019-05-16T12:29:28.164Z,57.52
2019-05-16T12:32:02.354Z,56.50
2019-05-16T12:34:26.876Z,58.23
2019-05-16T12:36:56.614Z,56.79
2019-05-16T12:39:26.837Z,56.40
2019-05-16T12:41:59.481Z,55.43
2019-05-16T12:44:26.940Z,53.86
2019-05-16T12:46:56.926Z,54.65
2019-05-16T12:49:25.668Z,55.83
2019-05-16T12:51:54.188Z,54.26
2019-05-16T12:54:22.609Z,55.92
2019-05-16T12:56:51.037Z,54.51
2019-05-16T12:59:21.672Z,54.35
2019-05-16T13:01:49.593Z,56.53
2019-05-16T13:04:18.895Z,56.70
2019-05-16T13:06:47.904Z,55.20
2019-05-16T13:09:18.533Z,55.87
2019-05-16T13:11:47.240Z,56.05
2019-05-16T13:14:16.951Z,54.24
2019-05-16T13:16:47.346Z,55.80
2019-05-16T13:19:18.151Z,55.52
2019-05-16T13:21:47.008Z,57.14
2019-05-16T13:24:18.597Z,58.40
2019-05-16T13:26:47.665Z,57.16
2019-05-16T13:29:18.109Z,56.96
2019-05-16T13:31:47.859Z,59.12
2019-05-16T13:34:17.850Z,58.70
2019-05-16T13:36:47.435Z,58.49
2019-05-16T13:39:17.056Z,58.62
2019-05-16T13:41:45.794Z,59.09
2019-05-16T13:44:19.946Z,59.22
2019-05-16T13:46:46.619Z,60.25
2019-05-16T13:49:14.823Z,59.51
2019-05-16T13:51:43.326Z,59.99
2019-05-16T13:54:11.727Z,59.77
2019-05-16T13:56:40.254Z,59.14
2019-05-16T13:59:08.804Z,59.52
2019-05-16T14:01:37.278Z,59.98
2019-05-16T14:04:09.574Z,58.51
2019-05-16T14:06:36.818Z,59.25
2019-05-16T14:09:07.609Z,57.55
2019-05-16T14:11:36.659Z,54.95
2019-05-16T14:14:05.860Z,55.33
2019-05-16T14:16:34.313Z,55.59
2019-05-16T14:19:02.838Z,55.96
2019-05-16T14:21:31.384Z,56.79
2019-05-16T14:23:59.829Z,57.54
2019-05-16T14:26:28.357Z,57.96
2019-05-16T14:28:57.583Z,58.55
2019-05-16T14:31:26.343Z,57.90
2019-05-16T14:33:56.744Z,58.81
2019-05-16T14:36:27.816Z,59.43
2019-05-16T14:38:57.440Z,57.50
2019-05-16T14:41:27.722Z,58.42
2019-05-16T14:43:55.630Z,59.17
2019-05-16T14:46:27.208Z,59.53
2019-05-16T14:48:54.273Z,60.13
2019-05-16T14:51:22.715Z,60.59
2019-05-16T14:53:51.126Z,59.79
2019-05-16T14:56:19.603Z,60.72
2019-05-16T14:58:48.714Z,60.70
2019-05-16T15:01:17.702Z,60.89
2019-05-16T15:03:47.261Z,61.76
2019-05-16T15:06:18.208Z,61.00
2019-05-16T15:08:47.427Z,60.52
2019-05-16T15:11:17.892Z,60.24
2019-05-16T15:13:46.310Z,60.43
2019-05-16T15:16:16.861Z,60.01
2019-05-16T15:18:47.462Z,59.25
2019-05-16T15:21:17.582Z,60.36
2019-05-16T15:23:45.307Z,59.76
2019-05-16T15:26:13.808Z,61.20
2019-05-16T15:28:42.215Z,60.92
2019-05-16T15:31:10.782Z,59.47
2019-05-16T15:33:39.256Z,60.74
2019-05-16T15:36:08.661Z,60.97
2019-05-16T15:38:37.414Z,60.05
2019-05-16T15:41:08.099Z,58.82
2019-05-16T15:43:36.866Z,60.66
2019-05-16T15:46:08.191Z,59.52
2019-05-16T15:48:37.256Z,58.37
2019-05-16T15:51:08.616Z,60.07
2019-05-16T15:53:36.640Z,60.33
2019-05-16T15:56:07.062Z,60.07
2019-05-16T15:58:37.407Z,58.44
2019-05-16T16:01:06.941Z,57.83
2019-05-16T16:03:38.170Z,58.93
2019-05-16T16:06:06.853Z,59.39
2019-05-16T16:08:37.385Z,58.95
2019-05-16T16:11:07.329Z,57.73
2019-05-16T16:13:37.488Z,56.76
2019-05-16T16:16:10.281Z,59.17
2019-05-16T16:18:37.625Z,58.56
2019-05-16T16:21:07.490Z,59.58
2019-05-16T16:23:37.250Z,59.58
2019-05-16T16:26:07.160Z,58.31
2019-05-16T16:28:38.201Z,58.99
2019-05-16T16:31:07.686Z,59.48
2019-05-16T16:33:37.401Z,60.31
2019-05-16T16:36:07.806Z,59.52
2019-05-16T16:38:37.226Z,58.85
2019-05-16T16:41:08.136Z,59.91
2019-05-16T16:43:37.236Z,60.67
2019-05-16T16:46:12.977Z,59.76
2019-05-16T16:48:36.367Z,58.57
2019-05-16T16:51:06.644Z,58.49
2019-05-16T16:53:37.513Z,60.00
2019-05-16T16:56:07.561Z,60.16
2019-05-16T16:58:37.220Z,60.68
2019-05-16T17:01:07.398Z,60.58
2019-05-16T17:03:36.487Z,60.71
2019-05-16T17:06:06.067Z,59.64
2019-05-16T17:08:37.275Z,59.06
2019-05-16T17:11:07.065Z,59.30
2019-05-16T17:13:36.552Z,59.34
2019-05-16T17:16:18.009Z,60.43
2019-05-16T17:18:36.915Z,58.90
2019-05-16T17:21:07.949Z,60.08
2019-05-16T17:23:37.041Z,60.23
2019-05-16T17:26:07.331Z,60.25
2019-05-16T17:28:37.299Z,59.98
2019-05-16T17:31:07.173Z,60.29
2019-05-16T17:33:38.244Z,61.09
2019-05-16T17:36:09.131Z,61.32
2019-05-16T17:38:37.119Z,61.18
2019-05-16T17:41:07.733Z,60.03
2019-05-16T17:43:36.423Z,60.56
2019-05-16T17:46:07.052Z,60.89
2019-05-16T17:48:38.045Z,61.40
2019-05-16T17:51:05.316Z,60.75
2019-05-16T17:53:33.721Z,60.97
2019-05-16T17:56:02.290Z,61.35
2019-05-16T17:58:30.815Z,61.18
2019-05-16T18:01:00.375Z,61.69
2019-05-16T18:03:29.099Z,61.27
2019-05-16T18:05:57.574Z,61.21
2019-05-16T18:08:26.016Z,61.48
2019-05-16T18:10:56.518Z,61.85
2019-05-16T18:13:26.209Z,62.17
2019-05-16T18:15:56.814Z,62.71
2019-05-16T18:18:26.955Z,62.54
2019-05-16T18:21:01.423Z,62.57
2019-05-16T18:23:27.502Z,62.12
2019-05-16T18:25:57.604Z,62.42
2019-05-16T18:28:26.779Z,62.43
2019-05-16T18:30:56.640Z,62.97
2019-05-16T18:33:27.465Z,62.78
2019-05-16T18:35:57.823Z,63.13
2019-05-16T18:38:26.504Z,63.20
2019-05-16T18:40:56.605Z,63.33
2019-05-16T18:43:27.146Z,64.26
2019-05-16T18:45:56.652Z,64.11
2019-05-16T18:48:27.254Z,64.30
2019-05-16T18:50:57.458Z,64.50
2019-05-16T18:53:27.009Z,64.92
2019-05-16T18:55:57.108Z,66.08
2019-05-16T18:58:27.027Z,66.15
2019-05-16T19:00:55.668Z,66.77
2019-05-16T19:03:24.085Z,66.99
2019-05-16T19:05:52.572Z,67.35
2019-05-16T19:08:21.119Z,67.73
2019-05-16T19:10:49.535Z,67.49
2019-05-16T19:13:18.037Z,67.50
2019-05-16T19:15:49.301Z,68.32
2019-05-16T19:18:17.124Z,68.40
2019-05-16T19:20:46.060Z,68.55
2019-05-16T19:23:17.497Z,68.02
2019-05-16T19:25:47.415Z,68.26
2019-05-16T19:28:16.049Z,68.22
2019-05-16T19:30:46.529Z,68.80
2019-05-16T19:33:17.278Z,68.70
2019-05-16T19:35:46.930Z,69.32
2019-05-16T19:38:17.061Z,69.31
2019-05-16T19:40:46.961Z,69.47
2019-05-16T19:43:17.373Z,69.04
2019-05-16T19:45:46.542Z,69.91
2019-05-16T19:48:17.310Z,69.57
2019-05-16T19:50:46.398Z,69.96
2019-05-16T19:53:16.513Z,70.55
2019-05-16T19:55:47.099Z,71.56
2019-05-16T19:58:15.372Z,72.17
2019-05-16T20:00:46.325Z,73.11
2019-05-16T20:03:14.038Z,73.49
2019-05-16T20:05:42.803Z,74.19
2019-05-16T20:08:11.295Z,74.79
2019-05-16T20:10:39.802Z,75.50
2019-05-16T20:13:08.285Z,75.77
2019-05-16T20:15:36.983Z,76.17
2019-05-16T20:18:07.777Z,76.81
2019-05-16T20:20:37.256Z,76.97
2019-05-16T20:23:06.433Z,77.54
2019-05-16T20:25:36.577Z,78.62
2019-05-16T20:28:08.782Z,79.27
2019-05-16T20:30:37.090Z,79.75
2019-05-16T20:33:09.625Z,80.42
2019-05-16T20:35:38.046Z,80.78
2019-05-16T20:38:07.040Z,81.48
2019-05-16T20:40:37.558Z,82.01
2019-05-16T20:43:07.906Z,81.87
2019-05-16T20:45:39.483Z,82.63
2019-05-16T20:48:12.248Z,82.62
2019-05-16T20:50:37.096Z,83.06
2019-05-16T20:53:07.424Z,83.31
2019-05-16T20:55:37.653Z,83.61
2019-05-16T20:58:07.676Z,83.82
2019-05-16T21:00:37.857Z,83.94
2019-05-16T21:03:07.247Z,83.85
2019-05-16T21:05:38.281Z,83.92
2019-05-16T21:08:06.613Z,84.13
2019-05-16T21:10:35.200Z,84.41
2019-05-16T21:13:03.681Z,84.50
2019-05-16T21:15:32.176Z,85.06
2019-05-16T21:18:00.711Z,85.33
2019-05-16T21:20:29.965Z,85.27
2019-05-16T21:22:58.591Z,85.61
2019-05-16T21:25:27.149Z,85.28
2019-05-16T21:27:57.279Z,85.14
2019-05-16T21:30:27.411Z,85.11
2019-05-16T21:32:56.487Z,85.29
2019-05-16T21:35:27.053Z,85.45
2019-05-16T21:37:55.301Z,85.46
2019-05-16T21:40:26.291Z,85.54
2019-05-16T21:42:58.562Z,85.56
2019-05-16T21:45:28.414Z,85.93
2019-05-16T21:47:56.567Z,86.29
2019-05-16T21:50:27.332Z,86.19
2019-05-16T21:52:56.498Z,86.35
2019-05-16T21:55:29.723Z,86.32
2019-05-16T21:57:57.474Z,86.48
2019-05-16T22:00:39.244Z,86.56
2019-05-16T22:03:14.249Z,86.72
2019-05-16T22:05:43.388Z,86.96
2019-05-16T22:08:12.033Z,87.08
2019-05-16T22:10:40.689Z,87.01
2019-05-16T22:13:09.185Z,87.15
2019-05-16T22:15:37.675Z,87.31
2019-05-16T22:18:07.262Z,87.43
2019-05-16T22:20:35.997Z,87.68
2019-05-16T22:23:06.803Z,87.70
2019-05-16T22:25:34.618Z,87.84
2019-05-16T22:28:03.895Z,87.81
2019-05-16T22:30:32.356Z,87.86
2019-05-16T22:33:00.769Z,87.82
2019-05-16T22:35:29.194Z,88.12
2019-05-16T22:37:59.396Z,88.89
2019-05-16T22:40:27.943Z,89.39
2019-05-16T22:42:57.526Z,89.82
2019-05-16T22:45:27.109Z,90.05
2019-05-16T22:47:55.614Z,89.56
2019-05-16T22:50:24.220Z,89.11
2019-05-16T22:52:52.722Z,88.89
2019-05-16T22:55:21.392Z,88.63
2019-05-16T22:57:49.816Z,88.71
2019-05-16T23:00:23.219Z,88.88
2019-05-16T23:02:51.697Z,88.82
2019-05-16T23:05:20.184Z,88.72
2019-05-16T23:08:02.072Z,88.58
2019-05-16T23:10:18.811Z,88.62
2019-05-16T23:12:47.232Z,88.66
2019-05-16T23:15:17.128Z,88.88
2019-05-16T23:17:46.610Z,88.87
2019-05-16T23:20:17.017Z,88.79
2019-05-16T23:22:47.020Z,88.90
2019-05-16T23:25:17.153Z,89.00
2019-05-16T23:27:47.439Z,88.92
2019-05-16T23:30:17.139Z,89.02
2019-05-16T23:32:47.136Z,88.91
2019-05-16T23:35:15.896Z,88.93
2019-05-16T23:37:46.309Z,89.11
2019-05-16T23:40:15.374Z,89.10
2019-05-16T23:42:46.299Z,89.04
2019-05-16T23:45:16.871Z,89.17
2019-05-16T23:47:46.919Z,89.12
2019-05-16T23:50:17.097Z,89.24
2019-05-16T23:52:47.181Z,89.36
2019-05-16T23:55:17.504Z,89.32
2019-05-16T23:57:47.015Z,89.28
